sensor_id;sensor_type;location;lat;lon;timestamp;temperature;humidity
22436;DHT22;11385;50.822;4.324;2022-08-19T00:01:38;22.00;99.90
22436;DHT22;11385;50.822;4.324;2022-08-19T00:04:08;22.00;99.90
22436;DHT22;11385;50.822;4.324;2022-08-19T00:06:36;21.80;99.90
22436;DHT22;11385;50.822;4.324;2022-08-19T00:09:05;21.80;99.90
22436;DHT22;11385;50.822;4.324;2022-08-19T00:11:34;21.70;99.90
22436;DHT22;11385;50.822;4.324;2022-08-19T00:14:04;21.50;99.90
22436;DHT22;11385;50.822;4.324;2022-08-19T00:16:32;21.60;99.90
22436;DHT22;11385;50.822;4.324;2022-08-19T00:18:59;21.50;99.90
22436;DHT22;11385;50.822;4.324;2022-08-19T00:21:26;21.40;99.90
22436;DHT22;11385;50.822;4.324;2022-08-19T00:23:54;21.40;99.90
22436;DHT22;11385;50.822;4.324;2022-08-19T00:26:25;21.60;99.90
22436;DHT22;11385;50.822;4.324;2022-08-19T00:28:52;21.70;99.90
22436;DHT22;11385;50.822;4.324;2022-08-19T00:31:18;21.60;99.90
22436;DHT22;11385;50.822;4.324;2022-08-19T00:33:46;21.40;99.90
22436;DHT22;11385;50.822;4.324;2022-08-19T00:36:15;21.40;99.90
22436;DHT22;11385;50.822;4.324;2022-08-19T00:38:42;21.50;99.90
22436;DHT22;11385;50.822;4.324;2022-08-19T00:41:14;21.50;99.90
22436;DHT22;11385;50.822;4.324;2022-08-19T00:43:41;21.50;99.90
22436;DHT22;11385;50.822;4.324;2022-08-19T00:46:07;21.80;99.90
22436;DHT22;11385;50.822;4.324;2022-08-19T00:48:34;21.80;99.90
22436;DHT22;11385;50.822;4.324;2022-08-19T00:51:04;21.80;99.90
22436;DHT22;11385;50.822;4.324;2022-08-19T00:53:32;21.80;99.90
22436;DHT22;11385;50.822;4.324;2022-08-19T00:56:01;21.80;99.90
22436;DHT22;11385;50.822;4.324;2022-08-19T00:58:32;21.60;99.90
22436;DHT22;11385;50.822;4.324;2022-08-19T01:01:00;21.80;99.90
22436;DHT22;11385;50.822;4.324;2022-08-19T01:03:27;21.90;99.90
22436;DHT22;11385;50.822;4.324;2022-08-19T01:05:54;21.90;99.90
22436;DHT22;11385;50.822;4.324;2022-08-19T01:08:22;21.90;99.90
22436;DHT22;11385;50.822;4.324;2022-08-19T01:10:56;21.90;99.90
22436;DHT22;11385;50.822;4.324;2022-08-19T01:13:25;21.90;99.90
22436;DHT22;11385;50.822;4.324;2022-08-19T01:15:58;21.80;99.90
22436;DHT22;11385;50.822;4.324;2022-08-19T01:18:26;21.60;99.90
22436;DHT22;11385;50.822;4.324;2022-08-19T01:20:56;21.50;99.90
22436;DHT22;11385;50.822;4.324;2022-08-19T01:23:24;21.40;99.90
22436;DHT22;11385;50.822;4.324;2022-08-19T01:25:53;21.30;99.90
22436;DHT22;11385;50.822;4.324;2022-08-19T01:28:24;21.40;99.90
22436;DHT22;11385;50.822;4.324;2022-08-19T01:30:52;21.10;99.90
22436;DHT22;11385;50.822;4.324;2022-08-19T01:33:20;21.00;99.90
22436;DHT22;11385;50.822;4.324;2022-08-19T01:35:47;20.80;99.90
22436;DHT22;11385;50.822;4.324;2022-08-19T01:38:23;20.70;99.90
22436;DHT22;11385;50.822;4.324;2022-08-19T01:40:50;20.70;99.90
22436;DHT22;11385;50.822;4.324;2022-08-19T01:43:18;20.80;99.90
22436;DHT22;11385;50.822;4.324;2022-08-19T01:45:45;20.70;99.90
22436;DHT22;11385;50.822;4.324;2022-08-19T01:48:13;20.70;99.90
22436;DHT22;11385;50.822;4.324;2022-08-19T01:50:40;20.50;99.90
22436;DHT22;11385;50.822;4.324;2022-08-19T01:53:11;20.40;99.90
22436;DHT22;11385;50.822;4.324;2022-08-19T01:55:40;20.50;99.90
22436;DHT22;11385;50.822;4.324;2022-08-19T01:58:15;20.40;99.90
22436;DHT22;11385;50.822;4.324;2022-08-19T02:00:43;20.50;99.90
22436;DHT22;11385;50.822;4.324;2022-08-19T02:03:11;20.60;99.90
22436;DHT22;11385;50.822;4.324;2022-08-19T02:05:39;20.60;99.90
22436;DHT22;11385;50.822;4.324;2022-08-19T02:08:07;20.50;99.90
22436;DHT22;11385;50.822;4.324;2022-08-19T02:10:40;20.50;99.90
22436;DHT22;11385;50.822;4.324;2022-08-19T02:13:08;20.30;99.90
22436;DHT22;11385;50.822;4.324;2022-08-19T02:15:35;20.10;99.90
22436;DHT22;11385;50.822;4.324;2022-08-19T02:18:02;20.20;99.90
22436;DHT22;11385;50.822;4.324;2022-08-19T02:20:29;20.10;99.90
22436;DHT22;11385;50.822;4.324;2022-08-19T02:22:56;20.20;99.90
22436;DHT22;11385;50.822;4.324;2022-08-19T02:25:22;19.90;99.90
22436;DHT22;11385;50.822;4.324;2022-08-19T02:27:49;20.00;99.90
22436;DHT22;11385;50.822;4.324;2022-08-19T02:30:16;19.90;99.90
22436;DHT22;11385;50.822;4.324;2022-08-19T02:32:43;19.80;99.90
22436;DHT22;11385;50.822;4.324;2022-08-19T02:35:10;20.00;99.90
22436;DHT22;11385;50.822;4.324;2022-08-19T02:37:37;20.10;99.90
22436;DHT22;11385;50.822;4.324;2022-08-19T02:40:09;20.20;99.90
22436;DHT22;11385;50.822;4.324;2022-08-19T02:42:36;20.30;99.90
22436;DHT22;11385;50.822;4.324;2022-08-19T02:45:03;20.30;99.90
22436;DHT22;11385;50.822;4.324;2022-08-19T02:47:32;20.20;99.90
22436;DHT22;11385;50.822;4.324;2022-08-19T02:50:00;20.00;99.90
22436;DHT22;11385;50.822;4.324;2022-08-19T02:52:27;20.00;99.90
22436;DHT22;11385;50.822;4.324;2022-08-19T02:54:54;19.90;99.90
22436;DHT22;11385;50.822;4.324;2022-08-19T02:57:23;19.80;99.90
22436;DHT22;11385;50.822;4.324;2022-08-19T02:59:50;19.80;99.90
22436;DHT22;11385;50.822;4.324;2022-08-19T03:02:17;19.80;99.90
22436;DHT22;11385;50.822;4.324;2022-08-19T03:04:43;19.80;99.90
22436;DHT22;11385;50.822;4.324;2022-08-19T03:07:13;19.70;99.90
22436;DHT22;11385;50.822;4.324;2022-08-19T03:09:40;19.50;99.90
22436;DHT22;11385;50.822;4.324;2022-08-19T03:12:08;19.60;99.90
22436;DHT22;11385;50.822;4.324;2022-08-19T03:14:36;19.60;99.90
22436;DHT22;11385;50.822;4.324;2022-08-19T03:17:03;19.80;99.90
22436;DHT22;11385;50.822;4.324;2022-08-19T03:19:30;19.70;99.90
22436;DHT22;11385;50.822;4.324;2022-08-19T03:21:58;19.80;99.90
22436;DHT22;11385;50.822;4.324;2022-08-19T03:24:24;19.70;99.90
22436;DHT22;11385;50.822;4.324;2022-08-19T03:26:54;19.50;99.90
22436;DHT22;11385;50.822;4.324;2022-08-19T03:29:24;19.30;99.90
22436;DHT22;11385;50.822;4.324;2022-08-19T03:31:51;19.50;99.90
22436;DHT22;11385;50.822;4.324;2022-08-19T03:34:23;19.40;99.90
22436;DHT22;11385;50.822;4.324;2022-08-19T03:36:53;19.30;99.90
22436;DHT22;11385;50.822;4.324;2022-08-19T03:39:20;19.40;99.90
22436;DHT22;11385;50.822;4.324;2022-08-19T03:41:49;19.50;99.90
22436;DHT22;11385;50.822;4.324;2022-08-19T03:44:21;19.40;99.90
22436;DHT22;11385;50.822;4.324;2022-08-19T03:46:51;19.30;99.90
22436;DHT22;11385;50.822;4.324;2022-08-19T03:49:20;19.20;99.90
22436;DHT22;11385;50.822;4.324;2022-08-19T03:51:48;19.20;99.90
22436;DHT22;11385;50.822;4.324;2022-08-19T03:54:18;19.20;99.90
22436;DHT22;11385;50.822;4.324;2022-08-19T03:56:47;19.30;99.90
22436;DHT22;11385;50.822;4.324;2022-08-19T03:59:18;19.10;99.90
22436;DHT22;11385;50.822;4.324;2022-08-19T04:01:45;19.10;99.90
22436;DHT22;11385;50.822;4.324;2022-08-19T04:04:12;18.90;99.90
22436;DHT22;11385;50.822;4.324;2022-08-19T04:06:39;18.90;99.90
22436;DHT22;11385;50.822;4.324;2022-08-19T04:09:09;19.00;99.90
22436;DHT22;11385;50.822;4.324;2022-08-19T04:11:40;18.80;99.90
22436;DHT22;11385;50.822;4.324;2022-08-19T04:14:09;19.00;99.90
22436;DHT22;11385;50.822;4.324;2022-08-19T04:16:36;19.00;99.90
22436;DHT22;11385;50.822;4.324;2022-08-19T04:19:04;19.10;99.90
22436;DHT22;11385;50.822;4.324;2022-08-19T04:21:31;19.10;99.90
22436;DHT22;11385;50.822;4.324;2022-08-19T04:23:58;18.90;99.90
22436;DHT22;11385;50.822;4.324;2022-08-19T04:26:28;18.90;99.90
22436;DHT22;11385;50.822;4.324;2022-08-19T04:28:59;18.70;99.90
22436;DHT22;11385;50.822;4.324;2022-08-19T04:31:29;18.60;99.90
22436;DHT22;11385;50.822;4.324;2022-08-19T04:33:57;18.40;99.90
22436;DHT22;11385;50.822;4.324;2022-08-19T04:36:28;18.50;99.90
22436;DHT22;11385;50.822;4.324;2022-08-19T04:38:56;18.40;99.90
22436;DHT22;11385;50.822;4.324;2022-08-19T04:41:24;18.30;99.90
22436;DHT22;11385;50.822;4.324;2022-08-19T04:43:56;18.30;99.90
22436;DHT22;11385;50.822;4.324;2022-08-19T04:46:22;18.40;99.90
22436;DHT22;11385;50.822;4.324;2022-08-19T04:48:49;18.30;99.90
22436;DHT22;11385;50.822;4.324;2022-08-19T04:51:16;18.10;99.90
22436;DHT22;11385;50.822;4.324;2022-08-19T04:53:42;18.00;99.90
22436;DHT22;11385;50.822;4.324;2022-08-19T04:56:11;18.10;99.90
22436;DHT22;11385;50.822;4.324;2022-08-19T04:58:40;18.30;99.90
22436;DHT22;11385;50.822;4.324;2022-08-19T05:01:25;18.50;99.90
22436;DHT22;11385;50.822;4.324;2022-08-19T05:03:52;18.60;99.90
22436;DHT22;11385;50.822;4.324;2022-08-19T05:06:21;18.70;99.90
22436;DHT22;11385;50.822;4.324;2022-08-19T05:08:48;18.80;99.90
22436;DHT22;11385;50.822;4.324;2022-08-19T05:11:25;18.80;99.90
22436;DHT22;11385;50.822;4.324;2022-08-19T05:13:52;18.80;99.90
22436;DHT22;11385;50.822;4.324;2022-08-19T05:16:21;18.80;99.90
22436;DHT22;11385;50.822;4.324;2022-08-19T05:18:48;18.70;99.90
22436;DHT22;11385;50.822;4.324;2022-08-19T05:21:21;18.80;99.90
22436;DHT22;11385;50.822;4.324;2022-08-19T05:23:54;18.60;99.90
22436;DHT22;11385;50.822;4.324;2022-08-19T05:26:21;18.60;99.90
22436;DHT22;11385;50.822;4.324;2022-08-19T05:28:47;18.80;99.90
22436;DHT22;11385;50.822;4.324;2022-08-19T05:31:14;18.60;99.90
22436;DHT22;11385;50.822;4.324;2022-08-19T05:33:40;18.70;99.90
22436;DHT22;11385;50.822;4.324;2022-08-19T05:36:07;18.80;99.90
22436;DHT22;11385;50.822;4.324;2022-08-19T05:38:34;18.90;99.90
22436;DHT22;11385;50.822;4.324;2022-08-19T05:41:07;18.70;99.90
22436;DHT22;11385;50.822;4.324;2022-08-19T05:43:34;18.80;99.90
22436;DHT22;11385;50.822;4.324;2022-08-19T05:46:01;18.90;99.90
22436;DHT22;11385;50.822;4.324;2022-08-19T05:48:28;19.00;99.90
22436;DHT22;11385;50.822;4.324;2022-08-19T05:50:55;18.80;99.90
22436;DHT22;11385;50.822;4.324;2022-08-19T05:53:22;19.10;99.90
22436;DHT22;11385;50.822;4.324;2022-08-19T05:55:49;19.40;99.90
22436;DHT22;11385;50.822;4.324;2022-08-19T05:58:16;19.50;99.90
22436;DHT22;11385;50.822;4.324;2022-08-19T06:00:43;19.60;99.90
22436;DHT22;11385;50.822;4.324;2022-08-19T06:03:10;19.60;99.90
22436;DHT22;11385;50.822;4.324;2022-08-19T06:05:37;19.80;99.90
22436;DHT22;11385;50.822;4.324;2022-08-19T06:08:04;19.70;99.90
22436;DHT22;11385;50.822;4.324;2022-08-19T06:10:33;19.60;99.90
22436;DHT22;11385;50.822;4.324;2022-08-19T06:12:59;19.70;99.90
22436;DHT22;11385;50.822;4.324;2022-08-19T06:15:26;20.00;99.90
22436;DHT22;11385;50.822;4.324;2022-08-19T06:17:53;20.00;99.90
22436;DHT22;11385;50.822;4.324;2022-08-19T06:20:20;20.10;99.90
22436;DHT22;11385;50.822;4.324;2022-08-19T06:22:48;20.30;99.90
22436;DHT22;11385;50.822;4.324;2022-08-19T06:25:17;20.40;99.90
22436;DHT22;11385;50.822;4.324;2022-08-19T06:27:45;20.30;99.90
22436;DHT22;11385;50.822;4.324;2022-08-19T06:30:12;20.20;99.90
22436;DHT22;11385;50.822;4.324;2022-08-19T06:32:39;20.40;99.90
22436;DHT22;11385;50.822;4.324;2022-08-19T06:35:06;20.60;99.90
22436;DHT22;11385;50.822;4.324;2022-08-19T06:37:33;20.40;99.90
22436;DHT22;11385;50.822;4.324;2022-08-19T06:40:00;20.50;99.90
22436;DHT22;11385;50.822;4.324;2022-08-19T06:42:26;20.60;99.90
22436;DHT22;11385;50.822;4.324;2022-08-19T06:44:53;20.70;99.90
22436;DHT22;11385;50.822;4.324;2022-08-19T06:47:21;20.90;99.90
22436;DHT22;11385;50.822;4.324;2022-08-19T06:49:48;20.80;99.90
22436;DHT22;11385;50.822;4.324;2022-08-19T06:52:15;20.60;99.90
22436;DHT22;11385;50.822;4.324;2022-08-19T06:54:42;20.80;99.90
22436;DHT22;11385;50.822;4.324;2022-08-19T06:57:09;20.70;99.90
22436;DHT22;11385;50.822;4.324;2022-08-19T06:59:37;20.50;99.90
22436;DHT22;11385;50.822;4.324;2022-08-19T07:02:05;20.50;99.90
22436;DHT22;11385;50.822;4.324;2022-08-19T07:04:34;20.50;99.90
22436;DHT22;11385;50.822;4.324;2022-08-19T07:07:05;20.40;99.90
22436;DHT22;11385;50.822;4.324;2022-08-19T07:09:36;20.50;99.90
22436;DHT22;11385;50.822;4.324;2022-08-19T07:12:07;20.70;99.90
22436;DHT22;11385;50.822;4.324;2022-08-19T07:14:36;20.60;99.90
22436;DHT22;11385;50.822;4.324;2022-08-19T07:17:07;20.70;99.90
22436;DHT22;11385;50.822;4.324;2022-08-19T07:19:34;20.70;99.90
22436;DHT22;11385;50.822;4.324;2022-08-19T07:22:03;21.00;99.90
22436;DHT22;11385;50.822;4.324;2022-08-19T07:24:31;21.20;99.90
22436;DHT22;11385;50.822;4.324;2022-08-19T07:27:01;21.20;99.90
22436;DHT22;11385;50.822;4.324;2022-08-19T07:29:31;21.40;99.90
22436;DHT22;11385;50.822;4.324;2022-08-19T07:32:00;21.40;99.90
22436;DHT22;11385;50.822;4.324;2022-08-19T07:34:29;21.80;99.90
22436;DHT22;11385;50.822;4.324;2022-08-19T07:36:56;21.90;99.90
22436;DHT22;11385;50.822;4.324;2022-08-19T07:39:26;21.80;99.90
22436;DHT22;11385;50.822;4.324;2022-08-19T07:41:54;21.70;99.90
22436;DHT22;11385;50.822;4.324;2022-08-19T07:44:21;21.70;99.90
22436;DHT22;11385;50.822;4.324;2022-08-19T07:46:52;21.90;99.90
22436;DHT22;11385;50.822;4.324;2022-08-19T07:49:20;22.00;99.90
22436;DHT22;11385;50.822;4.324;2022-08-19T07:51:52;22.10;99.90
22436;DHT22;11385;50.822;4.324;2022-08-19T07:54:19;21.90;99.90
22436;DHT22;11385;50.822;4.324;2022-08-19T07:56:46;22.10;99.90
22436;DHT22;11385;50.822;4.324;2022-08-19T07:59:13;22.50;99.90
22436;DHT22;11385;50.822;4.324;2022-08-19T08:01:40;22.20;99.90
22436;DHT22;11385;50.822;4.324;2022-08-19T08:04:07;22.20;99.90
22436;DHT22;11385;50.822;4.324;2022-08-19T08:06:39;22.40;99.90
22436;DHT22;11385;50.822;4.324;2022-08-19T08:09:13;22.40;99.90
22436;DHT22;11385;50.822;4.324;2022-08-19T08:11:48;22.50;99.90
22436;DHT22;11385;50.822;4.324;2022-08-19T08:14:19;22.10;99.90
22436;DHT22;11385;50.822;4.324;2022-08-19T08:16:46;22.10;99.90
22436;DHT22;11385;50.822;4.324;2022-08-19T08:19:13;22.30;99.90
22436;DHT22;11385;50.822;4.324;2022-08-19T08:21:41;22.20;99.90
22436;DHT22;11385;50.822;4.324;2022-08-19T08:24:08;22.30;99.90
22436;DHT22;11385;50.822;4.324;2022-08-19T08:26:35;22.40;99.90
22436;DHT22;11385;50.822;4.324;2022-08-19T08:29:02;22.30;99.90
22436;DHT22;11385;50.822;4.324;2022-08-19T08:31:30;22.60;99.90
22436;DHT22;11385;50.822;4.324;2022-08-19T08:33:56;22.80;99.90
22436;DHT22;11385;50.822;4.324;2022-08-19T08:36:23;23.10;99.90
22436;DHT22;11385;50.822;4.324;2022-08-19T08:38:51;23.20;99.90
22436;DHT22;11385;50.822;4.324;2022-08-19T08:41:39;22.80;99.90
22436;DHT22;11385;50.822;4.324;2022-08-19T08:44:06;22.70;99.90
22436;DHT22;11385;50.822;4.324;2022-08-19T08:46:39;22.80;99.90
22436;DHT22;11385;50.822;4.324;2022-08-19T08:49:26;22.70;99.90
22436;DHT22;11385;50.822;4.324;2022-08-19T08:52:00;22.50;99.90
22436;DHT22;11385;50.822;4.324;2022-08-19T08:54:35;22.70;99.90
22436;DHT22;11385;50.822;4.324;2022-08-19T08:57:04;22.90;99.90
22436;DHT22;11385;50.822;4.324;2022-08-19T08:59:36;22.70;99.90
22436;DHT22;11385;50.822;4.324;2022-08-19T09:02:03;22.70;99.90
22436;DHT22;11385;50.822;4.324;2022-08-19T09:04:30;22.40;99.90
22436;DHT22;11385;50.822;4.324;2022-08-19T09:07:12;22.50;99.90
22436;DHT22;11385;50.822;4.324;2022-08-19T09:09:40;22.70;99.90
22436;DHT22;11385;50.822;4.324;2022-08-19T09:12:20;22.90;99.90
22436;DHT22;11385;50.822;4.324;2022-08-19T09:14:52;23.00;99.90
22436;DHT22;11385;50.822;4.324;2022-08-19T09:17:23;23.40;99.90
22436;DHT22;11385;50.822;4.324;2022-08-19T09:19:56;23.30;99.90
22436;DHT22;11385;50.822;4.324;2022-08-19T09:22:24;22.90;99.90
22436;DHT22;11385;50.822;4.324;2022-08-19T09:24:53;23.00;99.90
22436;DHT22;11385;50.822;4.324;2022-08-19T09:27:21;23.00;99.90
22436;DHT22;11385;50.822;4.324;2022-08-19T09:29:50;23.20;99.90
22436;DHT22;11385;50.822;4.324;2022-08-19T09:32:17;23.20;99.90
22436;DHT22;11385;50.822;4.324;2022-08-19T09:34:44;23.10;99.90
22436;DHT22;11385;50.822;4.324;2022-08-19T09:37:11;23.00;99.90
22436;DHT22;11385;50.822;4.324;2022-08-19T09:39:39;23.00;99.90
22436;DHT22;11385;50.822;4.324;2022-08-19T09:42:07;23.10;99.90
22436;DHT22;11385;50.822;4.324;2022-08-19T09:44:40;22.90;99.90
22436;DHT22;11385;50.822;4.324;2022-08-19T09:47:09;22.90;99.90
22436;DHT22;11385;50.822;4.324;2022-08-19T09:49:36;23.10;99.90
22436;DHT22;11385;50.822;4.324;2022-08-19T09:52:03;23.00;99.90
22436;DHT22;11385;50.822;4.324;2022-08-19T09:54:30;23.30;99.90
22436;DHT22;11385;50.822;4.324;2022-08-19T09:56:58;23.10;99.90
22436;DHT22;11385;50.822;4.324;2022-08-19T09:59:26;23.50;99.90
22436;DHT22;11385;50.822;4.324;2022-08-19T10:01:53;23.50;99.90
22436;DHT22;11385;50.822;4.324;2022-08-19T10:04:20;23.40;99.90
22436;DHT22;11385;50.822;4.324;2022-08-19T10:06:49;23.70;99.90
22436;DHT22;11385;50.822;4.324;2022-08-19T10:09:17;24.00;99.90
22436;DHT22;11385;50.822;4.324;2022-08-19T10:11:45;24.20;99.90
22436;DHT22;11385;50.822;4.324;2022-08-19T10:14:14;24.10;99.90
22436;DHT22;11385;50.822;4.324;2022-08-19T10:16:42;23.60;99.90
22436;DHT22;11385;50.822;4.324;2022-08-19T10:19:09;23.50;99.90
22436;DHT22;11385;50.822;4.324;2022-08-19T10:21:36;23.30;99.90
22436;DHT22;11385;50.822;4.324;2022-08-19T10:24:05;23.40;99.90
22436;DHT22;11385;50.822;4.324;2022-08-19T10:26:34;23.30;99.90
22436;DHT22;11385;50.822;4.324;2022-08-19T10:29:04;23.80;99.90
22436;DHT22;11385;50.822;4.324;2022-08-19T10:31:33;24.00;99.90
22436;DHT22;11385;50.822;4.324;2022-08-19T10:34:01;23.90;99.90
22436;DHT22;11385;50.822;4.324;2022-08-19T10:36:32;23.60;99.90
22436;DHT22;11385;50.822;4.324;2022-08-19T10:39:04;23.50;99.90
22436;DHT22;11385;50.822;4.324;2022-08-19T10:41:34;23.50;99.90
22436;DHT22;11385;50.822;4.324;2022-08-19T10:44:05;23.60;99.90
22436;DHT22;11385;50.822;4.324;2022-08-19T10:46:35;23.30;99.90
22436;DHT22;11385;50.822;4.324;2022-08-19T10:49:04;23.40;99.90
22436;DHT22;11385;50.822;4.324;2022-08-19T10:51:31;23.60;99.90
22436;DHT22;11385;50.822;4.324;2022-08-19T10:54:04;23.60;99.90
22436;DHT22;11385;50.822;4.324;2022-08-19T10:56:32;23.50;99.90
22436;DHT22;11385;50.822;4.324;2022-08-19T10:59:05;23.50;99.90
22436;DHT22;11385;50.822;4.324;2022-08-19T11:01:32;23.40;99.90
22436;DHT22;11385;50.822;4.324;2022-08-19T11:04:02;23.50;99.90
22436;DHT22;11385;50.822;4.324;2022-08-19T11:06:31;23.80;99.90
22436;DHT22;11385;50.822;4.324;2022-08-19T11:08:58;23.80;99.90
22436;DHT22;11385;50.822;4.324;2022-08-19T11:11:26;23.40;99.90
22436;DHT22;11385;50.822;4.324;2022-08-19T11:13:54;23.40;99.90
22436;DHT22;11385;50.822;4.324;2022-08-19T11:16:23;23.50;99.90
22436;DHT22;11385;50.822;4.324;2022-08-19T11:18:54;23.90;99.90
22436;DHT22;11385;50.822;4.324;2022-08-19T11:21:25;23.80;99.90
22436;DHT22;11385;50.822;4.324;2022-08-19T11:23:55;23.80;99.90
22436;DHT22;11385;50.822;4.324;2022-08-19T11:26:23;24.00;99.90
22436;DHT22;11385;50.822;4.324;2022-08-19T11:28:50;23.80;99.90
22436;DHT22;11385;50.822;4.324;2022-08-19T11:31:21;24.00;99.90
22436;DHT22;11385;50.822;4.324;2022-08-19T11:33:48;24.30;99.90
22436;DHT22;11385;50.822;4.324;2022-08-19T11:36:19;24.40;99.90
22436;DHT22;11385;50.822;4.324;2022-08-19T11:38:47;24.10;99.90
22436;DHT22;11385;50.822;4.324;2022-08-19T11:41:17;24.00;99.90
22436;DHT22;11385;50.822;4.324;2022-08-19T11:43:44;24.00;99.90
22436;DHT22;11385;50.822;4.324;2022-08-19T11:46:12;24.00;99.90
22436;DHT22;11385;50.822;4.324;2022-08-19T11:48:40;24.30;99.90
22436;DHT22;11385;50.822;4.324;2022-08-19T11:51:09;24.60;99.90
22436;DHT22;11385;50.822;4.324;2022-08-19T11:53:37;25.20;99.90
22436;DHT22;11385;50.822;4.324;2022-08-19T11:56:06;25.80;99.90
22436;DHT22;11385;50.822;4.324;2022-08-19T11:58:33;26.10;99.90
22436;DHT22;11385;50.822;4.324;2022-08-19T12:01:00;25.90;99.90
22436;DHT22;11385;50.822;4.324;2022-08-19T12:03:27;26.10;99.90
22436;DHT22;11385;50.822;4.324;2022-08-19T12:05:53;26.20;99.90
22436;DHT22;11385;50.822;4.324;2022-08-19T12:08:20;26.10;99.90
22436;DHT22;11385;50.822;4.324;2022-08-19T12:10:47;26.20;99.90
22436;DHT22;11385;50.822;4.324;2022-08-19T12:13:14;26.50;99.90
22436;DHT22;11385;50.822;4.324;2022-08-19T12:15:43;26.50;99.90
22436;DHT22;11385;50.822;4.324;2022-08-19T12:18:11;26.80;99.90
22436;DHT22;11385;50.822;4.324;2022-08-19T12:20:41;26.90;99.90
22436;DHT22;11385;50.822;4.324;2022-08-19T12:23:09;26.70;99.90
22436;DHT22;11385;50.822;4.324;2022-08-19T12:25:42;26.80;99.90
22436;DHT22;11385;50.822;4.324;2022-08-19T12:28:06;26.90;99.90
22436;DHT22;11385;50.822;4.324;2022-08-19T12:30:32;27.00;99.90
22436;DHT22;11385;50.822;4.324;2022-08-19T12:32:59;26.80;99.90
22436;DHT22;11385;50.822;4.324;2022-08-19T12:35:25;26.70;99.90
22436;DHT22;11385;50.822;4.324;2022-08-19T12:37:53;26.80;99.90
22436;DHT22;11385;50.822;4.324;2022-08-19T12:40:20;26.50;99.90
22436;DHT22;11385;50.822;4.324;2022-08-19T12:42:47;26.30;99.90
22436;DHT22;11385;50.822;4.324;2022-08-19T12:45:15;26.80;99.90
22436;DHT22;11385;50.822;4.324;2022-08-19T12:47:41;26.80;99.90
22436;DHT22;11385;50.822;4.324;2022-08-19T12:50:09;26.60;99.90
22436;DHT22;11385;50.822;4.324;2022-08-19T12:52:37;26.80;99.90
22436;DHT22;11385;50.822;4.324;2022-08-19T12:55:06;27.10;99.90
22436;DHT22;11385;50.822;4.324;2022-08-19T12:57:32;27.10;99.90
22436;DHT22;11385;50.822;4.324;2022-08-19T13:00:05;27.00;99.90
22436;DHT22;11385;50.822;4.324;2022-08-19T13:02:34;26.60;99.90
22436;DHT22;11385;50.822;4.324;2022-08-19T13:05:01;26.10;99.90
22436;DHT22;11385;50.822;4.324;2022-08-19T13:07:27;26.10;99.90
22436;DHT22;11385;50.822;4.324;2022-08-19T13:09:54;26.50;99.90
22436;DHT22;11385;50.822;4.324;2022-08-19T13:12:20;26.60;99.90
22436;DHT22;11385;50.822;4.324;2022-08-19T13:14:49;26.60;99.90
22436;DHT22;11385;50.822;4.324;2022-08-19T13:17:16;26.40;99.90
22436;DHT22;11385;50.822;4.324;2022-08-19T13:19:43;26.50;99.90
22436;DHT22;11385;50.822;4.324;2022-08-19T13:22:10;26.60;99.90
22436;DHT22;11385;50.822;4.324;2022-08-19T13:24:37;26.40;99.90
22436;DHT22;11385;50.822;4.324;2022-08-19T13:27:04;26.50;99.90
22436;DHT22;11385;50.822;4.324;2022-08-19T13:29:30;26.70;99.90
22436;DHT22;11385;50.822;4.324;2022-08-19T13:32:03;26.60;99.90
22436;DHT22;11385;50.822;4.324;2022-08-19T13:34:35;27.10;99.90
22436;DHT22;11385;50.822;4.324;2022-08-19T13:37:04;26.90;99.90
22436;DHT22;11385;50.822;4.324;2022-08-19T13:39:33;27.00;99.90
22436;DHT22;11385;50.822;4.324;2022-08-19T13:42:01;26.40;99.90
22436;DHT22;11385;50.822;4.324;2022-08-19T13:44:30;26.70;99.90
22436;DHT22;11385;50.822;4.324;2022-08-19T13:47:01;26.70;99.90
22436;DHT22;11385;50.822;4.324;2022-08-19T13:49:33;26.90;99.90
22436;DHT22;11385;50.822;4.324;2022-08-19T13:52:03;26.80;99.90
22436;DHT22;11385;50.822;4.324;2022-08-19T13:54:30;26.60;99.90
22436;DHT22;11385;50.822;4.324;2022-08-19T13:56:57;26.40;99.90
22436;DHT22;11385;50.822;4.324;2022-08-19T13:59:24;26.20;99.90
22436;DHT22;11385;50.822;4.324;2022-08-19T14:01:50;26.00;99.90
22436;DHT22;11385;50.822;4.324;2022-08-19T14:04:17;25.60;99.90
22436;DHT22;11385;50.822;4.324;2022-08-19T14:06:44;25.20;99.90
22436;DHT22;11385;50.822;4.324;2022-08-19T14:09:10;24.80;99.90
22436;DHT22;11385;50.822;4.324;2022-08-19T14:11:37;24.50;99.90
22436;DHT22;11385;50.822;4.324;2022-08-19T14:14:04;24.10;99.90
22436;DHT22;11385;50.822;4.324;2022-08-19T14:16:30;24.20;99.90
22436;DHT22;11385;50.822;4.324;2022-08-19T14:18:57;24.40;99.90
22436;DHT22;11385;50.822;4.324;2022-08-19T14:21:24;24.60;99.90
22436;DHT22;11385;50.822;4.324;2022-08-19T14:23:51;24.60;99.90
22436;DHT22;11385;50.822;4.324;2022-08-19T14:26:19;24.60;99.90
22436;DHT22;11385;50.822;4.324;2022-08-19T14:28:46;24.50;99.90
22436;DHT22;11385;50.822;4.324;2022-08-19T14:31:15;24.60;99.90
22436;DHT22;11385;50.822;4.324;2022-08-19T14:33:44;24.50;99.90
22436;DHT22;11385;50.822;4.324;2022-08-19T14:36:11;24.30;99.90
22436;DHT22;11385;50.822;4.324;2022-08-19T14:38:38;23.90;99.90
22436;DHT22;11385;50.822;4.324;2022-08-19T14:41:09;23.80;99.90
22436;DHT22;11385;50.822;4.324;2022-08-19T14:43:37;23.70;99.90
22436;DHT22;11385;50.822;4.324;2022-08-19T14:46:04;23.50;99.90
22436;DHT22;11385;50.822;4.324;2022-08-19T14:48:30;23.80;99.90
22436;DHT22;11385;50.822;4.324;2022-08-19T14:50:57;24.00;99.90
22436;DHT22;11385;50.822;4.324;2022-08-19T14:53:24;24.30;99.90
22436;DHT22;11385;50.822;4.324;2022-08-19T14:55:51;25.00;99.90
22436;DHT22;11385;50.822;4.324;2022-08-19T14:58:18;25.70;99.90
22436;DHT22;11385;50.822;4.324;2022-08-19T15:00:45;25.70;99.90
22436;DHT22;11385;50.822;4.324;2022-08-19T15:03:12;25.90;99.90
22436;DHT22;11385;50.822;4.324;2022-08-19T15:05:39;26.10;99.90
22436;DHT22;11385;50.822;4.324;2022-08-19T15:08:05;25.90;99.90
22436;DHT22;11385;50.822;4.324;2022-08-19T15:10:32;25.50;99.90
22436;DHT22;11385;50.822;4.324;2022-08-19T15:12:59;25.20;99.90
22436;DHT22;11385;50.822;4.324;2022-08-19T15:15:26;25.50;99.90
22436;DHT22;11385;50.822;4.324;2022-08-19T15:17:53;26.00;99.90
22436;DHT22;11385;50.822;4.324;2022-08-19T15:20:20;26.10;99.90
22436;DHT22;11385;50.822;4.324;2022-08-19T15:22:48;26.30;99.90
22436;DHT22;11385;50.822;4.324;2022-08-19T15:25:17;25.80;99.90
22436;DHT22;11385;50.822;4.324;2022-08-19T15:27:44;26.00;99.90
22436;DHT22;11385;50.822;4.324;2022-08-19T15:30:17;25.90;99.90
22436;DHT22;11385;50.822;4.324;2022-08-19T15:32:41;25.90;99.90
22436;DHT22;11385;50.822;4.324;2022-08-19T15:35:08;26.10;99.90
22436;DHT22;11385;50.822;4.324;2022-08-19T15:37:35;25.90;99.90